デトロイト/メトロポリタン の空港の天気 - METARとTAF

デトロイト・メトロポリタン・ウェイン・カウンティ空港 ( KDTW / DTW ) - アメリカ ミシガン州Romulus(デトロイト近郊)
飛行場実況気象(Metar)
観測時間03/09 01:53 EST (03/09 06:53 UTC)
風向・風速西 2m/s
視程10km以上
天気現象
全天の8割程度の雲 雲底高度 6710m
気温6.1℃
湿度65%
気圧1026.6hPa
METARKDTW 090653Z 27003KT 7SM BKN220 06/00 A3031 RMK AO2 SLP266 T00610000
過去の天気等 Google飛行場航空写真 Wunderground天気予報

過去48時間のMETAR

飛行場予報(TAF)
発表時間: 3/09 00:20 EST (3/09 05:20 UTC)
予報対象時間: 9日1時 EST ~ 10日7時 EST
風向・風速不定 2m/s
視程10km以上
全天の4割程度の雲 雲底高度 7620m
9日13時 EST から
風向・風速南東 5m/s
視程10km以上
少しの雲 雲底高度 1520m
全天の4割程度の雲 雲底高度 4570m
全天の8割程度の雲 雲底高度 7620m
10日0時 EST から
風向・風速南南東 3m/s
視程10km以上
全天の8割程度の雲 雲底高度 4570m
KDTW 090520Z 0906/1012 VRB03KT P6SM SCT250
FM091800 14009KT P6SM FEW050 SCT150 BKN250
FM100500 16006KT P6SM BKN150